sensor_id;sensor_type;location;lat;lon;timestamp;P1;durP1;ratioP1;P2;durP2;ratioP2
47804;SDS011;33568;45.286;9.900;2023-05-06T00:01:54;36.08;;;32.42;;
47804;SDS011;33568;45.286;9.900;2023-05-06T00:04:21;36.50;;;32.60;;
47804;SDS011;33568;45.286;9.900;2023-05-06T00:06:48;40.05;;;31.65;;
47804;SDS011;33568;45.286;9.900;2023-05-06T00:09:14;38.03;;;31.33;;
47804;SDS011;33568;45.286;9.900;2023-05-06T00:11:41;39.95;;;33.80;;
47804;SDS011;33568;45.286;9.900;2023-05-06T00:14:07;35.47;;;31.88;;
47804;SDS011;33568;45.286;9.900;2023-05-06T00:16:34;35.05;;;31.42;;
47804;SDS011;33568;45.286;9.900;2023-05-06T00:19:00;39.78;;;32.38;;
47804;SDS011;33568;45.286;9.900;2023-05-06T00:21:27;36.20;;;32.58;;
47804;SDS011;33568;45.286;9.900;2023-05-06T00:23:54;36.28;;;31.40;;
47804;SDS011;33568;45.286;9.900;2023-05-06T00:26:21;36.53;;;32.45;;
47804;SDS011;33568;45.286;9.900;2023-05-06T00:28:47;38.83;;;31.35;;
47804;SDS011;33568;45.286;9.900;2023-05-06T00:31:14;34.20;;;30.73;;
47804;SDS011;33568;45.286;9.900;2023-05-06T00:33:40;35.80;;;31.20;;
47804;SDS011;33568;45.286;9.900;2023-05-06T00:36:07;34.97;;;31.40;;
47804;SDS011;33568;45.286;9.900;2023-05-06T00:38:33;34.97;;;31.20;;
47804;SDS011;33568;45.286;9.900;2023-05-06T00:41:00;33.83;;;30.30;;
47804;SDS011;33568;45.286;9.900;2023-05-06T00:43:28;36.25;;;31.40;;
47804;SDS011;33568;45.286;9.900;2023-05-06T00:45:55;34.97;;;31.05;;
47804;SDS011;33568;45.286;9.900;2023-05-06T00:48:21;47.83;;;30.70;;
47804;SDS011;33568;45.286;9.900;2023-05-06T00:50:48;34.45;;;30.83;;
47804;SDS011;33568;45.286;9.900;2023-05-06T00:53:18;34.58;;;30.73;;
47804;SDS011;33568;45.286;9.900;2023-05-06T00:55:48;35.72;;;32.08;;
47804;SDS011;33568;45.286;9.900;2023-05-06T00:58:16;37.08;;;29.58;;
47804;SDS011;33568;45.286;9.900;2023-05-06T01:00:45;35.03;;;31.33;;
47804;SDS011;33568;45.286;9.900;2023-05-06T01:03:11;34.05;;;30.40;;
47804;SDS011;33568;45.286;9.900;2023-05-06T01:05:42;44.00;;;31.85;;
47804;SDS011;33568;45.286;9.900;2023-05-06T01:08:36;36.20;;;32.47;;
47804;SDS011;33568;45.286;9.900;2023-05-06T01:11:12;38.10;;;31.73;;
47804;SDS011;33568;45.286;9.900;2023-05-06T01:13:58;39.17;;;31.83;;
47804;SDS011;33568;45.286;9.900;2023-05-06T01:16:32;34.63;;;31.10;;
47804;SDS011;33568;45.286;9.900;2023-05-06T01:19:03;35.13;;;31.58;;
47804;SDS011;33568;45.286;9.900;2023-05-06T01:21:33;36.45;;;32.72;;
47804;SDS011;33568;45.286;9.900;2023-05-06T01:24:01;37.83;;;31.92;;
47804;SDS011;33568;45.286;9.900;2023-05-06T01:26:27;39.30;;;33.63;;
47804;SDS011;33568;45.286;9.900;2023-05-06T01:28:54;37.95;;;33.72;;
47804;SDS011;33568;45.286;9.900;2023-05-06T01:31:25;35.47;;;31.60;;
47804;SDS011;33568;45.286;9.900;2023-05-06T01:34:20;35.00;;;31.33;;
47804;SDS011;33568;45.286;9.900;2023-05-06T01:37:06;35.83;;;30.73;;
47804;SDS011;33568;45.286;9.900;2023-05-06T01:39:57;36.85;;;30.90;;
47804;SDS011;33568;45.286;9.900;2023-05-06T01:42:25;33.97;;;30.30;;
47804;SDS011;33568;45.286;9.900;2023-05-06T01:44:53;33.65;;;30.15;;
47804;SDS011;33568;45.286;9.900;2023-05-06T01:47:22;35.65;;;30.65;;
47804;SDS011;33568;45.286;9.900;2023-05-06T01:49:49;35.30;;;30.63;;
47804;SDS011;33568;45.286;9.900;2023-05-06T01:52:16;35.15;;;31.10;;
47804;SDS011;33568;45.286;9.900;2023-05-06T01:54:43;34.58;;;31.05;;
47804;SDS011;33568;45.286;9.900;2023-05-06T01:57:10;35.85;;;31.15;;
47804;SDS011;33568;45.286;9.900;2023-05-06T01:59:36;33.13;;;29.75;;
47804;SDS011;33568;45.286;9.900;2023-05-06T02:02:03;33.55;;;30.13;;
47804;SDS011;33568;45.286;9.900;2023-05-06T02:04:29;34.38;;;30.77;;
47804;SDS011;33568;45.286;9.900;2023-05-06T02:06:56;33.88;;;30.02;;
47804;SDS011;33568;45.286;9.900;2023-05-06T02:09:23;35.45;;;31.27;;
47804;SDS011;33568;45.286;9.900;2023-05-06T02:11:54;37.58;;;31.08;;
47804;SDS011;33568;45.286;9.900;2023-05-06T02:14:22;34.40;;;29.85;;
47804;SDS011;33568;45.286;9.900;2023-05-06T02:16:49;36.08;;;32.42;;
47804;SDS011;33568;45.286;9.900;2023-05-06T02:19:16;33.60;;;30.08;;
47804;SDS011;33568;45.286;9.900;2023-05-06T02:21:43;37.35;;;28.70;;
47804;SDS011;33568;45.286;9.900;2023-05-06T02:24:09;34.08;;;30.45;;
47804;SDS011;33568;45.286;9.900;2023-05-06T02:26:36;33.90;;;30.42;;
47804;SDS011;33568;45.286;9.900;2023-05-06T02:29:03;33.42;;;29.58;;
47804;SDS011;33568;45.286;9.900;2023-05-06T02:31:29;35.97;;;31.17;;
47804;SDS011;33568;45.286;9.900;2023-05-06T02:33:56;33.15;;;29.65;;
47804;SDS011;33568;45.286;9.900;2023-05-06T02:38:49;34.03;;;30.75;;
47804;SDS011;33568;45.286;9.900;2023-05-06T02:41:15;41.53;;;32.05;;
47804;SDS011;33568;45.286;9.900;2023-05-06T02:43:42;31.95;;;28.65;;
47804;SDS011;33568;45.286;9.900;2023-05-06T02:46:26;34.13;;;30.50;;
47804;SDS011;33568;45.286;9.900;2023-05-06T02:49:12;33.28;;;29.63;;
47804;SDS011;33568;45.286;9.900;2023-05-06T02:51:38;39.42;;;32.00;;
47804;SDS011;33568;45.286;9.900;2023-05-06T02:54:05;37.47;;;32.15;;
47804;SDS011;33568;45.286;9.900;2023-05-06T02:56:49;34.25;;;30.55;;
47804;SDS011;33568;45.286;9.900;2023-05-06T02:59:16;36.78;;;31.55;;
47804;SDS011;33568;45.286;9.900;2023-05-06T03:01:42;35.35;;;30.38;;
47804;SDS011;33568;45.286;9.900;2023-05-06T03:04:09;34.75;;;30.80;;
47804;SDS011;33568;45.286;9.900;2023-05-06T03:06:35;38.00;;;32.03;;
47804;SDS011;33568;45.286;9.900;2023-05-06T03:09:02;37.45;;;30.60;;
47804;SDS011;33568;45.286;9.900;2023-05-06T03:11:30;35.53;;;30.25;;
47804;SDS011;33568;45.286;9.900;2023-05-06T03:14:01;34.47;;;30.85;;
47804;SDS011;33568;45.286;9.900;2023-05-06T03:16:28;33.42;;;29.73;;
47804;SDS011;33568;45.286;9.900;2023-05-06T03:18:57;34.13;;;30.50;;
47804;SDS011;33568;45.286;9.900;2023-05-06T03:21:24;32.85;;;29.30;;
47804;SDS011;33568;45.286;9.900;2023-05-06T03:23:52;38.03;;;30.15;;
47804;SDS011;33568;45.286;9.900;2023-05-06T03:26:21;35.85;;;30.60;;
47804;SDS011;33568;45.286;9.900;2023-05-06T03:28:47;33.35;;;28.38;;
47804;SDS011;33568;45.286;9.900;2023-05-06T03:31:18;35.50;;;31.98;;
47804;SDS011;33568;45.286;9.900;2023-05-06T03:33:45;37.35;;;28.73;;
47804;SDS011;33568;45.286;9.900;2023-05-06T03:36:12;33.20;;;29.88;;
47804;SDS011;33568;45.286;9.900;2023-05-06T03:38:41;32.47;;;28.98;;
47804;SDS011;33568;45.286;9.900;2023-05-06T03:41:08;36.17;;;30.83;;
47804;SDS011;33568;45.286;9.900;2023-05-06T03:43:35;34.63;;;29.23;;
47804;SDS011;33568;45.286;9.900;2023-05-06T03:46:04;33.92;;;30.00;;
47804;SDS011;33568;45.286;9.900;2023-05-06T03:48:33;34.53;;;30.80;;
47804;SDS011;33568;45.286;9.900;2023-05-06T03:51:00;33.67;;;29.88;;
47804;SDS011;33568;45.286;9.900;2023-05-06T03:53:27;34.30;;;30.67;;
47804;SDS011;33568;45.286;9.900;2023-05-06T03:55:54;34.50;;;30.90;;
47804;SDS011;33568;45.286;9.900;2023-05-06T03:58:21;35.75;;;32.03;;
47804;SDS011;33568;45.286;9.900;2023-05-06T04:00:47;32.97;;;29.58;;
47804;SDS011;33568;45.286;9.900;2023-05-06T04:05:47;35.17;;;31.70;;
47804;SDS011;33568;45.286;9.900;2023-05-06T04:08:16;35.65;;;31.63;;
47804;SDS011;33568;45.286;9.900;2023-05-06T04:10:44;36.10;;;32.22;;
47804;SDS011;33568;45.286;9.900;2023-05-06T04:13:17;37.90;;;32.92;;
47804;SDS011;33568;45.286;9.900;2023-05-06T04:15:45;39.00;;;30.77;;
47804;SDS011;33568;45.286;9.900;2023-05-06T04:18:17;36.05;;;31.83;;
47804;SDS011;33568;45.286;9.900;2023-05-06T04:20:52;36.72;;;32.60;;
47804;SDS011;33568;45.286;9.900;2023-05-06T04:23:18;37.30;;;32.50;;
47804;SDS011;33568;45.286;9.900;2023-05-06T04:25:47;36.60;;;32.80;;
47804;SDS011;33568;45.286;9.900;2023-05-06T04:28:15;35.85;;;32.00;;
47804;SDS011;33568;45.286;9.900;2023-05-06T04:30:44;38.45;;;34.20;;
47804;SDS011;33568;45.286;9.900;2023-05-06T04:33:13;45.22;;;34.10;;
47804;SDS011;33568;45.286;9.900;2023-05-06T04:35:40;36.78;;;33.05;;
47804;SDS011;33568;45.286;9.900;2023-05-06T04:38:15;39.40;;;34.10;;
47804;SDS011;33568;45.286;9.900;2023-05-06T04:40:42;38.53;;;34.45;;
47804;SDS011;33568;45.286;9.900;2023-05-06T04:43:09;35.42;;;31.80;;
47804;SDS011;33568;45.286;9.900;2023-05-06T04:45:36;37.65;;;33.67;;
47804;SDS011;33568;45.286;9.900;2023-05-06T04:48:05;37.55;;;32.40;;
47804;SDS011;33568;45.286;9.900;2023-05-06T04:50:33;41.90;;;34.67;;
47804;SDS011;33568;45.286;9.900;2023-05-06T04:53:01;37.63;;;33.65;;
47804;SDS011;33568;45.286;9.900;2023-05-06T04:55:28;39.88;;;33.72;;
47804;SDS011;33568;45.286;9.900;2023-05-06T04:57:54;39.42;;;33.42;;
47804;SDS011;33568;45.286;9.900;2023-05-06T05:00:20;43.88;;;34.08;;
47804;SDS011;33568;45.286;9.900;2023-05-06T05:02:47;39.85;;;35.55;;
47804;SDS011;33568;45.286;9.900;2023-05-06T05:05:15;38.00;;;33.58;;
47804;SDS011;33568;45.286;9.900;2023-05-06T05:07:45;36.80;;;30.67;;
47804;SDS011;33568;45.286;9.900;2023-05-06T05:10:11;39.60;;;32.17;;
47804;SDS011;33568;45.286;9.900;2023-05-06T05:12:38;37.35;;;33.42;;
47804;SDS011;33568;45.286;9.900;2023-05-06T05:15:05;38.05;;;34.15;;
47804;SDS011;33568;45.286;9.900;2023-05-06T05:17:32;41.15;;;34.20;;
47804;SDS011;33568;45.286;9.900;2023-05-06T05:19:59;42.30;;;33.88;;
47804;SDS011;33568;45.286;9.900;2023-05-06T05:22:26;38.30;;;34.30;;
47804;SDS011;33568;45.286;9.900;2023-05-06T05:24:53;39.78;;;33.35;;
47804;SDS011;33568;45.286;9.900;2023-05-06T05:27:20;37.50;;;33.55;;
47804;SDS011;33568;45.286;9.900;2023-05-06T05:29:47;36.20;;;32.45;;
47804;SDS011;33568;45.286;9.900;2023-05-06T05:32:13;37.58;;;33.65;;
47804;SDS011;33568;45.286;9.900;2023-05-06T05:34:41;38.88;;;33.72;;
47804;SDS011;33568;45.286;9.900;2023-05-06T05:37:08;36.70;;;32.65;;
47804;SDS011;33568;45.286;9.900;2023-05-06T05:39:36;39.47;;;31.73;;
47804;SDS011;33568;45.286;9.900;2023-05-06T05:42:02;39.20;;;32.28;;
47804;SDS011;33568;45.286;9.900;2023-05-06T05:44:31;52.30;;;34.72;;
47804;SDS011;33568;45.286;9.900;2023-05-06T05:46:58;54.75;;;35.00;;
47804;SDS011;33568;45.286;9.900;2023-05-06T05:49:25;51.78;;;34.47;;
47804;SDS011;33568;45.286;9.900;2023-05-06T05:51:52;51.53;;;35.10;;
47804;SDS011;33568;45.286;9.900;2023-05-06T05:54:20;47.00;;;31.98;;
47804;SDS011;33568;45.286;9.900;2023-05-06T05:56:47;41.10;;;32.28;;
47804;SDS011;33568;45.286;9.900;2023-05-06T05:59:14;38.67;;;28.95;;
47804;SDS011;33568;45.286;9.900;2023-05-06T06:01:43;32.97;;;29.55;;
47804;SDS011;33568;45.286;9.900;2023-05-06T06:04:09;32.40;;;29.00;;
47804;SDS011;33568;45.286;9.900;2023-05-06T06:06:36;33.67;;;30.25;;
47804;SDS011;33568;45.286;9.900;2023-05-06T06:09:02;36.17;;;29.73;;
47804;SDS011;33568;45.286;9.900;2023-05-06T06:11:29;35.00;;;29.88;;
47804;SDS011;33568;45.286;9.900;2023-05-06T06:13:56;32.53;;;29.30;;
47804;SDS011;33568;45.286;9.900;2023-05-06T06:16:23;31.45;;;27.90;;
47804;SDS011;33568;45.286;9.900;2023-05-06T06:18:50;32.47;;;29.10;;
47804;SDS011;33568;45.286;9.900;2023-05-06T06:21:17;31.55;;;28.10;;
47804;SDS011;33568;45.286;9.900;2023-05-06T06:23:44;34.60;;;31.05;;
47804;SDS011;33568;45.286;9.900;2023-05-06T06:26:11;32.22;;;28.80;;
47804;SDS011;33568;45.286;9.900;2023-05-06T06:28:38;31.25;;;28.13;;
47804;SDS011;33568;45.286;9.900;2023-05-06T06:31:04;29.77;;;26.70;;
47804;SDS011;33568;45.286;9.900;2023-05-06T06:33:32;29.92;;;26.90;;
47804;SDS011;33568;45.286;9.900;2023-05-06T06:35:58;27.17;;;24.45;;
47804;SDS011;33568;45.286;9.900;2023-05-06T06:38:24;34.42;;;26.30;;
47804;SDS011;33568;45.286;9.900;2023-05-06T06:40:51;35.45;;;27.27;;
47804;SDS011;33568;45.286;9.900;2023-05-06T06:43:17;29.58;;;25.38;;
47804;SDS011;33568;45.286;9.900;2023-05-06T06:45:59;29.42;;;25.38;;
47804;SDS011;33568;45.286;9.900;2023-05-06T06:48:26;33.25;;;25.52;;
47804;SDS011;33568;45.286;9.900;2023-05-06T06:50:52;30.70;;;24.00;;
47804;SDS011;33568;45.286;9.900;2023-05-06T06:53:19;27.35;;;22.35;;
47804;SDS011;33568;45.286;9.900;2023-05-06T06:55:45;23.85;;;21.55;;
47804;SDS011;33568;45.286;9.900;2023-05-06T06:58:12;24.25;;;21.80;;
47804;SDS011;33568;45.286;9.900;2023-05-06T07:00:38;23.58;;;20.48;;
47804;SDS011;33568;45.286;9.900;2023-05-06T07:03:05;27.33;;;22.65;;
47804;SDS011;33568;45.286;9.900;2023-05-06T07:05:31;21.63;;;19.30;;
47804;SDS011;33568;45.286;9.900;2023-05-06T07:07:58;23.40;;;21.08;;
47804;SDS011;33568;45.286;9.900;2023-05-06T07:10:24;23.17;;;20.83;;
47804;SDS011;33568;45.286;9.900;2023-05-06T07:12:51;25.65;;;20.73;;
47804;SDS011;33568;45.286;9.900;2023-05-06T07:15:17;22.63;;;20.33;;
47804;SDS011;33568;45.286;9.900;2023-05-06T07:17:44;24.35;;;22.05;;
47804;SDS011;33568;45.286;9.900;2023-05-06T07:20:11;27.58;;;20.67;;
47804;SDS011;33568;45.286;9.900;2023-05-06T07:22:38;29.25;;;21.20;;
47804;SDS011;33568;45.286;9.900;2023-05-06T07:25:06;24.60;;;20.73;;
47804;SDS011;33568;45.286;9.900;2023-05-06T07:27:32;25.83;;;22.05;;
47804;SDS011;33568;45.286;9.900;2023-05-06T07:29:59;23.65;;;20.17;;
47804;SDS011;33568;45.286;9.900;2023-05-06T07:32:25;26.05;;;19.80;;
47804;SDS011;33568;45.286;9.900;2023-05-06T07:34:52;21.45;;;19.13;;
47804;SDS011;33568;45.286;9.900;2023-05-06T07:37:18;29.30;;;20.67;;
47804;SDS011;33568;45.286;9.900;2023-05-06T07:39:46;22.98;;;20.55;;
47804;SDS011;33568;45.286;9.900;2023-05-06T07:42:12;23.98;;;20.33;;
47804;SDS011;33568;45.286;9.900;2023-05-06T07:44:38;21.40;;;19.40;;
47804;SDS011;33568;45.286;9.900;2023-05-06T07:47:05;24.70;;;20.17;;
47804;SDS011;33568;45.286;9.900;2023-05-06T07:49:31;23.17;;;19.20;;
47804;SDS011;33568;45.286;9.900;2023-05-06T07:51:59;22.00;;;19.65;;
47804;SDS011;33568;45.286;9.900;2023-05-06T07:54:26;25.42;;;20.17;;
47804;SDS011;33568;45.286;9.900;2023-05-06T07:56:52;22.33;;;20.17;;
47804;SDS011;33568;45.286;9.900;2023-05-06T07:59:19;24.02;;;19.75;;
47804;SDS011;33568;45.286;9.900;2023-05-06T08:01:45;25.25;;;20.38;;
47804;SDS011;33568;45.286;9.900;2023-05-06T08:04:12;21.88;;;19.60;;
47804;SDS011;33568;45.286;9.900;2023-05-06T08:06:38;21.08;;;18.83;;
47804;SDS011;33568;45.286;9.900;2023-05-06T08:09:05;22.13;;;19.73;;
47804;SDS011;33568;45.286;9.900;2023-05-06T08:11:31;27.05;;;20.42;;
47804;SDS011;33568;45.286;9.900;2023-05-06T08:13:57;22.05;;;18.63;;
47804;SDS011;33568;45.286;9.900;2023-05-06T08:16:24;25.75;;;18.70;;
47804;SDS011;33568;45.286;9.900;2023-05-06T08:18:51;23.42;;;20.40;;
47804;SDS011;33568;45.286;9.900;2023-05-06T08:21:17;23.70;;;19.45;;
47804;SDS011;33568;45.286;9.900;2023-05-06T08:23:44;20.13;;;17.98;;
47804;SDS011;33568;45.286;9.900;2023-05-06T08:26:10;22.80;;;20.42;;
47804;SDS011;33568;45.286;9.900;2023-05-06T08:28:36;22.67;;;19.65;;
47804;SDS011;33568;45.286;9.900;2023-05-06T08:31:03;22.10;;;17.90;;
47804;SDS011;33568;45.286;9.900;2023-05-06T08:33:30;21.33;;;19.13;;
47804;SDS011;33568;45.286;9.900;2023-05-06T08:35:57;22.50;;;20.10;;
47804;SDS011;33568;45.286;9.900;2023-05-06T08:38:24;27.40;;;20.23;;
47804;SDS011;33568;45.286;9.900;2023-05-06T08:40:51;22.10;;;19.83;;
47804;SDS011;33568;45.286;9.900;2023-05-06T08:43:19;22.40;;;20.10;;
47804;SDS011;33568;45.286;9.900;2023-05-06T08:45:48;22.50;;;20.08;;
47804;SDS011;33568;45.286;9.900;2023-05-06T08:48:15;24.63;;;18.77;;
47804;SDS011;33568;45.286;9.900;2023-05-06T08:50:42;21.65;;;19.00;;
47804;SDS011;33568;45.286;9.900;2023-05-06T08:53:09;25.75;;;18.08;;
47804;SDS011;33568;45.286;9.900;2023-05-06T08:55:37;21.23;;;19.08;;
47804;SDS011;33568;45.286;9.900;2023-05-06T08:58:08;20.15;;;18.15;;
47804;SDS011;33568;45.286;9.900;2023-05-06T09:00:38;20.10;;;18.00;;
47804;SDS011;33568;45.286;9.900;2023-05-06T09:03:05;23.30;;;19.30;;
47804;SDS011;33568;45.286;9.900;2023-05-06T09:05:31;22.80;;;19.48;;
47804;SDS011;33568;45.286;9.900;2023-05-06T09:07:58;21.08;;;18.77;;
47804;SDS011;33568;45.286;9.900;2023-05-06T09:10:29;24.98;;;19.17;;
47804;SDS011;33568;45.286;9.900;2023-05-06T09:12:57;20.55;;;18.40;;
47804;SDS011;33568;45.286;9.900;2023-05-06T09:15:24;22.48;;;19.38;;
47804;SDS011;33568;45.286;9.900;2023-05-06T09:17:53;26.90;;;19.42;;
47804;SDS011;33568;45.286;9.900;2023-05-06T09:20:20;21.90;;;19.08;;
47804;SDS011;33568;45.286;9.900;2023-05-06T09:22:47;25.92;;;18.48;;
47804;SDS011;33568;45.286;9.900;2023-05-06T09:25:13;20.15;;;18.25;;
47804;SDS011;33568;45.286;9.900;2023-05-06T09:27:40;24.08;;;18.13;;
47804;SDS011;33568;45.286;9.900;2023-05-06T09:30:07;29.20;;;18.92;;
47804;SDS011;33568;45.286;9.900;2023-05-06T09:32:37;19.63;;;17.60;;
47804;SDS011;33568;45.286;9.900;2023-05-06T09:35:03;19.98;;;17.83;;
47804;SDS011;33568;45.286;9.900;2023-05-06T09:37:30;23.00;;;17.15;;
47804;SDS011;33568;45.286;9.900;2023-05-06T09:39:57;19.27;;;17.38;;
47804;SDS011;33568;45.286;9.900;2023-05-06T09:42:27;17.50;;;15.68;;
47804;SDS011;33568;45.286;9.900;2023-05-06T09:44:55;19.17;;;16.80;;
47804;SDS011;33568;45.286;9.900;2023-05-06T09:47:24;19.17;;;16.85;;
47804;SDS011;33568;45.286;9.900;2023-05-06T09:49:57;20.95;;;18.90;;
47804;SDS011;33568;45.286;9.900;2023-05-06T09:52:28;23.63;;;18.15;;
47804;SDS011;33568;45.286;9.900;2023-05-06T09:54:56;18.42;;;16.60;;
47804;SDS011;33568;45.286;9.900;2023-05-06T09:57:23;18.88;;;16.63;;
47804;SDS011;33568;45.286;9.900;2023-05-06T09:59:51;18.83;;;17.13;;
47804;SDS011;33568;45.286;9.900;2023-05-06T10:02:21;19.27;;;17.38;;
47804;SDS011;33568;45.286;9.900;2023-05-06T10:04:48;20.50;;;17.60;;
47804;SDS011;33568;45.286;9.900;2023-05-06T10:07:16;26.70;;;17.50;;
47804;SDS011;33568;45.286;9.900;2023-05-06T10:09:48;25.73;;;17.20;;
47804;SDS011;33568;45.286;9.900;2023-05-06T10:12:18;19.58;;;17.65;;
47804;SDS011;33568;45.286;9.900;2023-05-06T10:14:45;22.25;;;17.65;;
47804;SDS011;33568;45.286;9.900;2023-05-06T10:17:12;22.23;;;17.98;;
47804;SDS011;33568;45.286;9.900;2023-05-06T10:19:39;22.10;;;18.13;;
47804;SDS011;33568;45.286;9.900;2023-05-06T10:22:13;19.83;;;17.80;;
47804;SDS011;33568;45.286;9.900;2023-05-06T10:24:51;19.38;;;17.42;;
47804;SDS011;33568;45.286;9.900;2023-05-06T10:27:24;18.65;;;16.75;;
47804;SDS011;33568;45.286;9.900;2023-05-06T10:29:53;23.08;;;16.45;;
47804;SDS011;33568;45.286;9.900;2023-05-06T10:32:25;17.52;;;15.43;;
47804;SDS011;33568;45.286;9.900;2023-05-06T10:34:55;18.35;;;16.65;;
47804;SDS011;33568;45.286;9.900;2023-05-06T10:37:26;19.75;;;17.60;;
47804;SDS011;33568;45.286;9.900;2023-05-06T10:39:55;24.33;;;16.23;;
47804;SDS011;33568;45.286;9.900;2023-05-06T10:42:31;20.45;;;18.35;;
47804;SDS011;33568;45.286;9.900;2023-05-06T10:45:01;19.10;;;16.38;;
47804;SDS011;33568;45.286;9.900;2023-05-06T10:52:50;19.02;;;16.83;;
47804;SDS011;33568;45.286;9.900;2023-05-06T10:55:28;27.50;;;16.98;;
47804;SDS011;33568;45.286;9.900;2023-05-06T10:57:56;20.17;;;16.00;;
47804;SDS011;33568;45.286;9.900;2023-05-06T11:00:29;18.90;;;16.45;;
47804;SDS011;33568;45.286;9.900;2023-05-06T11:02:59;21.00;;;16.63;;
47804;SDS011;33568;45.286;9.900;2023-05-06T11:05:26;22.27;;;16.65;;
47804;SDS011;33568;45.286;9.900;2023-05-06T11:08:05;17.65;;;15.95;;
47804;SDS011;33568;45.286;9.900;2023-05-06T11:10:35;18.50;;;16.50;;
47804;SDS011;33568;45.286;9.900;2023-05-06T11:13:18;19.33;;;15.65;;
47804;SDS011;33568;45.286;9.900;2023-05-06T11:15:53;18.83;;;15.90;;
47804;SDS011;33568;45.286;9.900;2023-05-06T11:26:08;19.40;;;16.30;;
47804;SDS011;33568;45.286;9.900;2023-05-06T11:28:35;21.70;;;16.17;;
47804;SDS011;33568;45.286;9.900;2023-05-06T11:31:01;19.58;;;16.58;;
47804;SDS011;33568;45.286;9.900;2023-05-06T11:33:32;24.85;;;17.10;;
47804;SDS011;33568;45.286;9.900;2023-05-06T11:35:59;26.08;;;16.80;;
47804;SDS011;33568;45.286;9.900;2023-05-06T11:38:40;18.50;;;16.00;;
47804;SDS011;33568;45.286;9.900;2023-05-06T11:41:09;17.58;;;15.88;;
47804;SDS011;33568;45.286;9.900;2023-05-06T11:43:37;18.40;;;13.23;;
47804;SDS011;33568;45.286;9.900;2023-05-06T11:46:04;16.05;;;14.45;;
47804;SDS011;33568;45.286;9.900;2023-05-06T11:48:31;19.15;;;15.35;;
47804;SDS011;33568;45.286;9.900;2023-05-06T11:50:57;17.83;;;14.32;;
47804;SDS011;33568;45.286;9.900;2023-05-06T11:53:24;17.05;;;14.00;;
47804;SDS011;33568;45.286;9.900;2023-05-06T11:55:50;16.65;;;13.75;;
47804;SDS011;33568;45.286;9.900;2023-05-06T11:58:19;20.05;;;13.55;;
47804;SDS011;33568;45.286;9.900;2023-05-06T12:00:53;16.63;;;14.55;;
47804;SDS011;33568;45.286;9.900;2023-05-06T12:03:24;17.15;;;15.00;;
47804;SDS011;33568;45.286;9.900;2023-05-06T12:05:52;17.75;;;15.50;;
47804;SDS011;33568;45.286;9.900;2023-05-06T12:08:28;19.17;;;15.43;;
47804;SDS011;33568;45.286;9.900;2023-05-06T12:11:01;16.83;;;15.13;;
47804;SDS011;33568;45.286;9.900;2023-05-06T12:13:29;16.80;;;13.75;;
47804;SDS011;33568;45.286;9.900;2023-05-06T12:15:57;18.70;;;12.60;;
47804;SDS011;33568;45.286;9.900;2023-05-06T12:18:24;17.05;;;14.50;;
47804;SDS011;33568;45.286;9.900;2023-05-06T12:20:52;13.10;;;11.80;;
47804;SDS011;33568;45.286;9.900;2023-05-06T12:23:24;18.98;;;12.55;;
47804;SDS011;33568;45.286;9.900;2023-05-06T12:26:00;16.80;;;13.20;;
47804;SDS011;33568;45.286;9.900;2023-05-06T12:28:29;17.98;;;14.45;;
47804;SDS011;33568;45.286;9.900;2023-05-06T12:30:56;15.48;;;13.98;;
47804;SDS011;33568;45.286;9.900;2023-05-06T12:33:22;18.35;;;13.55;;
47804;SDS011;33568;45.286;9.900;2023-05-06T12:35:49;16.60;;;13.20;;
47804;SDS011;33568;45.286;9.900;2023-05-06T12:38:21;21.90;;;14.02;;
47804;SDS011;33568;45.286;9.900;2023-05-06T12:40:52;18.10;;;13.00;;
47804;SDS011;33568;45.286;9.900;2023-05-06T12:43:26;14.75;;;13.30;;
47804;SDS011;33568;45.286;9.900;2023-05-06T12:46:04;14.80;;;13.40;;
47804;SDS011;33568;45.286;9.900;2023-05-06T12:48:32;11.20;;;10.10;;
47804;SDS011;33568;45.286;9.900;2023-05-06T12:50:59;15.23;;;11.43;;
47804;SDS011;33568;45.286;9.900;2023-05-06T12:53:29;14.43;;;12.82;;
47804;SDS011;33568;45.286;9.900;2023-05-06T12:55:57;13.55;;;12.10;;
47804;SDS011;33568;45.286;9.900;2023-05-06T12:58:24;15.57;;;13.55;;
47804;SDS011;33568;45.286;9.900;2023-05-06T13:00:50;16.13;;;12.27;;
47804;SDS011;33568;45.286;9.900;2023-05-06T13:03:17;15.38;;;13.65;;
47804;SDS011;33568;45.286;9.900;2023-05-06T13:05:46;16.20;;;13.25;;
47804;SDS011;33568;45.286;9.900;2023-05-06T13:08:14;16.08;;;12.55;;
47804;SDS011;33568;45.286;9.900;2023-05-06T13:10:41;15.82;;;12.40;;
47804;SDS011;33568;45.286;9.900;2023-05-06T13:13:07;14.85;;;12.80;;
47804;SDS011;33568;45.286;9.900;2023-05-06T13:15:34;16.48;;;12.98;;
47804;SDS011;33568;45.286;9.900;2023-05-06T13:18:01;15.65;;;11.90;;
47804;SDS011;33568;45.286;9.900;2023-05-06T13:20:27;14.55;;;13.15;;
47804;SDS011;33568;45.286;9.900;2023-05-06T13:22:54;13.90;;;12.50;;
47804;SDS011;33568;45.286;9.900;2023-05-06T13:25:21;13.35;;;11.30;;
47804;SDS011;33568;45.286;9.900;2023-05-06T13:27:48;14.48;;;11.02;;
47804;SDS011;33568;45.286;9.900;2023-05-06T13:30:14;10.57;;;9.52;;
47804;SDS011;33568;45.286;9.900;2023-05-06T13:32:41;11.90;;;10.80;;
47804;SDS011;33568;45.286;9.900;2023-05-06T13:35:08;12.02;;;10.80;;
47804;SDS011;33568;45.286;9.900;2023-05-06T13:37:35;17.52;;;9.63;;
47804;SDS011;33568;45.286;9.900;2023-05-06T13:40:01;14.23;;;11.25;;
47804;SDS011;33568;45.286;9.900;2023-05-06T13:42:28;13.18;;;11.98;;
47804;SDS011;33568;45.286;9.900;2023-05-06T13:44:54;14.73;;;13.25;;
47804;SDS011;33568;45.286;9.900;2023-05-06T13:47:21;13.23;;;11.93;;
47804;SDS011;33568;45.286;9.900;2023-05-06T13:49:47;14.60;;;11.90;;
47804;SDS011;33568;45.286;9.900;2023-05-06T13:52:14;12.77;;;11.38;;
47804;SDS011;33568;45.286;9.900;2023-05-06T13:54:40;14.55;;;11.25;;
47804;SDS011;33568;45.286;9.900;2023-05-06T13:57:07;16.08;;;11.73;;
47804;SDS011;33568;45.286;9.900;2023-05-06T13:59:33;13.23;;;11.05;;
47804;SDS011;33568;45.286;9.900;2023-05-06T14:02:00;13.25;;;11.40;;
47804;SDS011;33568;45.286;9.900;2023-05-06T14:04:26;12.38;;;10.60;;
47804;SDS011;33568;45.286;9.900;2023-05-06T14:06:53;13.25;;;11.82;;
47804;SDS011;33568;45.286;9.900;2023-05-06T14:09:20;13.18;;;11.65;;
47804;SDS011;33568;45.286;9.900;2023-05-06T14:11:47;13.38;;;11.65;;
47804;SDS011;33568;45.286;9.900;2023-05-06T14:14:13;11.93;;;10.80;;
47804;SDS011;33568;45.286;9.900;2023-05-06T14:16:40;17.25;;;11.45;;
47804;SDS011;33568;45.286;9.900;2023-05-06T14:19:06;15.15;;;11.15;;
47804;SDS011;33568;45.286;9.900;2023-05-06T14:21:33;12.77;;;11.20;;
47804;SDS011;33568;45.286;9.900;2023-05-06T14:23:59;12.43;;;9.32;;
47804;SDS011;33568;45.286;9.900;2023-05-06T14:26:25;12.30;;;10.02;;
47804;SDS011;33568;45.286;9.900;2023-05-06T14:28:52;13.02;;;11.27;;
47804;SDS011;33568;45.286;9.900;2023-05-06T14:31:18;19.20;;;12.13;;
47804;SDS011;33568;45.286;9.900;2023-05-06T14:33:45;11.43;;;10.23;;
47804;SDS011;33568;45.286;9.900;2023-05-06T14:36:16;12.45;;;9.65;;
47804;SDS011;33568;45.286;9.900;2023-05-06T14:38:43;10.75;;;8.73;;
47804;SDS011;33568;45.286;9.900;2023-05-06T14:41:09;10.68;;;9.68;;
47804;SDS011;33568;45.286;9.900;2023-05-06T14:43:36;12.90;;;8.43;;
47804;SDS011;33568;45.286;9.900;2023-05-06T14:46:02;11.82;;;9.70;;